Time;durP1;ratioP1;P1;durP2;ratioP2;P2;SDS_P1;SDS_P2;PMS_P1;PMS_P2;Temp;Humidity;BMP_temperature;BMP_pressure;BME280_temperature;BME280_humidity;BME280_pressure;Samples;Min_cycle;Max_cycle;Signal;HPM_P1;HPM_P2
2022/05/28 00:01:23;;;;;;;6.18;1.02;;;;;;;11.06;63.03;100910.13;5087558;28;20066;-52
2022/05/28 00:03:51;;;;;;;3.33;1.00;;;;;;;11.01;63.27;100917.44;5086862;28;20035;-45
2022/05/28 00:06:21;;;;;;;6.57;1.10;;;;;;;11.00;63.15;100913.97;5090854;28;20082;-47
2022/05/28 00:08:48;;;;;;;5.35;1.40;;;;;;;10.97;63.25;100917.59;5090709;28;20141;-49
2022/05/28 00:11:18;;;;;;;7.00;1.17;;;;;;;10.96;63.31;100915.94;5088265;28;20043;-46
2022/05/28 00:13:45;;;;;;;8.00;1.52;;;;;;;10.98;63.15;100908.78;5091906;28;20051;-46
2022/05/28 00:16:12;;;;;;;6.93;1.00;;;;;;;10.99;63.37;100909.63;5086783;28;20124;-45
2022/05/28 00:18:39;;;;;;;5.70;1.30;;;;;;;11.02;63.13;100908.59;5085378;28;20033;-45
2022/05/28 00:21:06;;;;;;;5.28;0.90;;;;;;;11.08;63.18;100903.84;5088638;28;20082;-45
2022/05/28 00:23:32;;;;;;;4.50;0.90;;;;;;;11.05;63.02;100903.16;5085580;28;20043;-47
2022/05/28 00:25:57;;;;;;;6.70;1.48;;;;;;;11.06;63.07;100910.13;5090365;28;20028;-48
2022/05/28 00:28:23;;;;;;;5.90;1.20;;;;;;;11.05;63.13;100905.81;5086603;28;20383;-46
2022/05/28 00:30:48;;;;;;;7.82;1.42;;;;;;;11.00;63.13;100905.19;5089458;28;20391;-45
2022/05/28 00:33:14;;;;;;;7.25;1.20;;;;;;;10.99;63.14;100901.75;5089124;28;20036;-52
2022/05/28 00:35:40;;;;;;;5.93;1.60;;;;;;;11.00;63.45;100890.28;5086227;28;20043;-45
2022/05/28 00:38:06;;;;;;;9.98;1.58;;;;;;;11.02;63.01;100898.94;5085663;28;20034;-46
2022/05/28 00:40:32;;;;;;;5.60;1.25;;;;;;;11.07;63.03;100896.03;5085083;28;20028;-49
2022/05/28 00:43:04;;;;;;;4.80;1.20;;;;;;;11.13;62.65;100900.94;5081584;28;20032;-45
2022/05/28 00:45:32;;;;;;;9.77;1.45;;;;;;;11.16;62.51;100894.66;5078843;28;20105;-53
2022/05/28 00:48:03;;;;;;;6.57;1.25;;;;;;;11.19;62.34;100891.84;5078743;28;20046;-46
2022/05/28 00:50:30;;;;;;;12.00;1.40;;;;;;;11.21;62.28;100887.31;5080681;28;20023;-50
2022/05/28 00:52:56;;;;;;;9.60;1.45;;;;;;;11.21;62.11;100882.91;5076752;28;20035;-57
2022/05/28 00:55:22;;;;;;;5.50;1.20;;;;;;;11.21;62.14;100877.66;5077203;28;20027;-59
2022/05/28 00:57:49;;;;;;;6.82;1.23;;;;;;;11.23;61.98;100880.19;5076394;28;20038;-54
2022/05/28 01:00:18;;;;;;;7.93;1.40;;;;;;;11.26;62.13;100875.59;5084614;28;20039;-48
2022/05/28 01:03:15;;;;;;;5.72;1.20;;;;;;;11.31;61.91;100871.81;5089651;28;20028;-53
2022/05/28 01:05:51;;;;;;;9.95;2.15;;;;;;;11.34;61.82;100876.91;5071316;28;20786;-48
2022/05/28 01:08:40;;;;;;;4.57;1.40;;;;;;;11.35;61.83;100871.56;5077925;28;20401;-46
2022/05/28 01:11:12;;;;;;;3.60;1.00;;;;;;;11.40;61.91;100877.41;5085402;28;20450;-55
2022/05/28 01:14:17;;;;;;;10.15;1.30;;;;;;;11.43;61.80;100876.38;5084809;28;20293;-45
2022/05/28 01:16:48;;;;;;;8.70;1.50;;;;;;;11.48;61.67;100866.41;5084378;28;20033;-45
2022/05/28 01:19:52;;;;;;;12.18;1.45;;;;;;;11.51;61.54;100868.88;5080434;28;20036;-46
2022/05/28 01:22:30;;;;;;;6.05;1.10;;;;;;;11.54;61.44;100863.41;5076082;28;20028;-47
2022/05/28 01:25:02;;;;;;;7.32;1.00;;;;;;;11.52;61.28;100864.44;5074524;28;20503;-45
2022/05/28 01:27:45;;;;;;;10.82;1.80;;;;;;;11.47;61.19;100854.19;5078674;28;20035;-48
2022/05/28 01:30:13;;;;;;;8.40;1.50;;;;;;;11.44;61.41;100856.97;5076984;28;20030;-46
2022/05/28 01:32:41;;;;;;;8.27;1.40;;;;;;;11.40;61.59;100852.84;5081735;28;20032;-60
2022/05/28 01:35:10;;;;;;;7.75;1.33;;;;;;;11.35;61.54;100852.28;5078422;28;20104;-50
2022/05/28 01:37:36;;;;;;;5.10;1.00;;;;;;;11.31;61.79;100845.47;5080495;28;20035;-50
2022/05/28 01:40:06;;;;;;;6.07;1.42;;;;;;;11.27;61.97;100840.38;5081537;28;20526;-49
2022/05/28 01:42:33;;;;;;;9.57;1.45;;;;;;;11.32;61.91;100844.53;5076512;28;20036;-52
2022/05/28 01:45:00;;;;;;;7.30;1.23;;;;;;;11.35;61.90;100841.75;5082402;28;20503;-50
2022/05/28 01:47:29;;;;;;;12.88;1.45;;;;;;;11.39;61.53;100841.47;5083358;28;20081;-50
2022/05/28 01:49:56;;;;;;;5.43;1.08;;;;;;;11.41;61.51;100833.47;5082469;28;20028;-49
2022/05/28 01:52:24;;;;;;;5.45;1.70;;;;;;;11.43;61.67;100834.22;5078370;28;20547;-49
2022/05/28 01:54:51;;;;;;;5.88;1.30;;;;;;;11.38;61.46;100829.22;5080484;28;20060;-49
2022/05/28 01:57:17;;;;;;;6.95;1.30;;;;;;;11.35;61.53;100831.19;5085328;28;20020;-49
2022/05/28 01:59:43;;;;;;;8.10;1.50;;;;;;;11.27;61.54;100814.03;5081465;28;20444;-51
2022/05/28 02:02:11;;;;;;;91.40;12.20;;;;;;;11.20;61.76;100812.72;5080454;28;20035;-51
2022/05/28 02:04:39;;;;;;;8.05;1.40;;;;;;;11.19;61.83;100805.78;5083422;28;20060;-50
2022/05/28 02:07:05;;;;;;;6.03;1.23;;;;;;;11.15;61.87;100804.25;5081628;28;20016;-51
2022/05/28 02:09:42;;;;;;;8.30;1.83;;;;;;;11.15;61.75;100792.88;5092182;28;20492;-49
2022/05/28 02:12:29;;;;;;;7.57;1.95;;;;;;;11.17;61.98;100791.84;5082598;28;20028;-51
2022/05/28 02:15:05;;;;;;;11.38;1.58;;;;;;;11.21;61.80;100793.38;5087598;28;20078;-51
2022/05/28 02:17:52;;;;;;;9.07;1.33;;;;;;;11.19;61.64;100794.41;5084322;28;20065;-49
2022/05/28 02:20:22;;;;;;;8.43;1.55;;;;;;;11.14;61.63;100786.75;5078892;28;20059;-49
2022/05/28 02:23:03;;;;;;;6.25;1.25;;;;;;;11.16;61.67;100789.31;5082142;28;20077;-49
2022/05/28 02:25:36;;;;;;;11.05;1.90;;;;;;;11.13;61.80;100785.91;5079278;28;20055;-49
2022/05/28 02:28:04;;;;;;;4.88;1.38;;;;;;;11.10;61.59;100785.25;5077862;28;20503;-52
2022/05/28 02:30:32;;;;;;;5.40;1.23;;;;;;;11.09;61.80;100778.28;5083058;28;20024;-49
2022/05/28 02:33:03;;;;;;;10.45;1.75;;;;;;;11.09;61.83;100780.94;5078212;28;20161;-49
2022/05/28 02:35:28;;;;;;;3.95;1.02;;;;;;;11.11;61.72;100779.88;5077762;28;20036;-49
2022/05/28 02:37:54;;;;;;;6.97;1.52;;;;;;;11.08;61.86;100777.44;5087384;28;20038;-49
2022/05/28 02:40:20;;;;;;;8.88;1.67;;;;;;;11.04;61.85;100769.81;5081546;28;20036;-50
2022/05/28 02:42:45;;;;;;;3.00;1.02;;;;;;;11.05;61.92;100774.97;5086182;28;20024;-53
2022/05/28 02:45:11;;;;;;;6.40;1.40;;;;;;;11.06;61.75;100778.47;5082705;28;20028;-49
2022/05/28 02:47:37;;;;;;;12.32;1.45;;;;;;;11.04;61.71;100770.66;5078294;28;20046;-49
2022/05/28 02:50:03;;;;;;;5.95;1.30;;;;;;;11.00;61.64;100777.06;5077695;28;20047;-49
2022/05/28 02:52:28;;;;;;;6.93;2.13;;;;;;;10.96;61.72;100759.72;5084833;28;20088;-49
2022/05/28 02:54:54;;;;;;;8.48;1.40;;;;;;;10.95;61.87;100769.44;5080609;28;20043;-50
2022/05/28 02:57:19;;;;;;;10.45;1.33;;;;;;;10.97;62.00;100757.00;5078095;28;20043;-48
2022/05/28 02:59:45;;;;;;;6.63;1.27;;;;;;;10.97;61.76;100754.38;5086801;28;20028;-53
2022/05/28 03:02:10;;;;;;;4.78;1.17;;;;;;;10.94;61.82;100759.84;5075783;28;20384;-53
2022/05/28 03:04:36;;;;;;;10.32;1.40;;;;;;;10.94;61.67;100757.19;5087339;28;20036;-49
2022/05/28 03:07:01;;;;;;;7.82;1.25;;;;;;;10.88;61.77;100749.66;5088021;28;20383;-52
2022/05/28 03:09:27;;;;;;;9.23;1.60;;;;;;;10.87;61.82;100755.84;5083620;28;20035;-50
2022/05/28 03:11:52;;;;;;;12.15;1.40;;;;;;;10.88;61.86;100751.44;5085030;28;20074;-49
2022/05/28 03:14:18;;;;;;;5.88;1.40;;;;;;;10.83;61.98;100744.66;5087099;28;20047;-49
2022/05/28 03:16:44;;;;;;;7.22;1.40;;;;;;;10.83;61.95;100742.03;5080512;28;20043;-49
2022/05/28 03:19:10;;;;;;;5.65;1.33;;;;;;;10.84;61.89;100745.50;5084083;28;20020;-49
2022/05/28 03:21:35;;;;;;;7.88;1.33;;;;;;;10.86;61.81;100735.72;5078795;28;20028;-49
2022/05/28 03:24:01;;;;;;;8.80;1.17;;;;;;;10.84;61.89;100742.88;5075173;28;20067;-49
2022/05/28 03:26:29;;;;;;;6.95;1.17;;;;;;;10.84;61.90;100721.81;5079508;28;20035;-49
2022/05/28 03:28:58;;;;;;;7.95;1.45;;;;;;;10.87;61.87;100726.06;5081137;28;20027;-49
2022/05/28 03:31:26;;;;;;;7.53;1.20;;;;;;;10.85;61.80;100723.50;5082406;28;20039;-49
2022/05/28 03:33:52;;;;;;;70.03;11.05;;;;;;;10.86;61.84;100741.00;5081756;28;20035;-51
2022/05/28 03:36:19;;;;;;;15.32;1.77;;;;;;;10.87;61.82;100724.25;5086346;28;20384;-49
2022/05/28 03:38:44;;;;;;;7.05;1.40;;;;;;;10.88;61.68;100733.03;5087094;28;20028;-51
2022/05/28 03:41:12;;;;;;;6.38;1.30;;;;;;;10.91;61.63;100754.75;5081484;28;20020;-52
2022/05/28 03:43:37;;;;;;;6.35;1.35;;;;;;;10.91;61.37;100736.31;5079303;28;21249;-50
2022/05/28 03:46:04;;;;;;;8.38;1.58;;;;;;;10.91;61.43;100749.47;5080964;28;20150;-52
2022/05/28 03:48:31;;;;;;;7.03;1.10;;;;;;;10.91;61.44;100744.22;5082992;28;20035;-51
2022/05/28 03:50:56;;;;;;;6.78;1.58;;;;;;;10.93;61.37;100758.13;5094853;28;20054;-52
2022/05/28 03:53:23;;;;;;;4.47;1.02;;;;;;;10.94;61.34;100759.84;5090099;28;20044;-51
2022/05/28 03:55:48;;;;;;;8.60;1.92;;;;;;;10.96;61.15;100751.84;5092047;28;20503;-50
2022/05/28 03:58:14;;;;;;;8.13;1.15;;;;;;;10.96;61.08;100747.44;5090924;28;20090;-48
2022/05/28 04:00:40;;;;;;;7.82;1.33;;;;;;;11.01;61.21;100748.91;5089755;28;20035;-49
2022/05/28 04:03:06;;;;;;;7.30;1.58;;;;;;;11.05;61.05;100739.91;5092588;28;20024;-52
2022/05/28 04:05:32;;;;;;;6.82;1.63;;;;;;;11.06;60.97;100741.59;5092242;28;20574;-49
2022/05/28 04:07:57;;;;;;;8.32;1.40;;;;;;;11.07;61.07;100744.13;5082486;28;20492;-49
2022/05/28 04:10:24;;;;;;;8.18;1.23;;;;;;;11.08;60.86;100740.56;5092632;28;20032;-49
2022/05/28 04:12:50;;;;;;;5.05;0.95;;;;;;;11.07;61.06;100743.31;5082772;28;20114;-49
2022/05/28 04:15:15;;;;;;;5.43;1.00;;;;;;;11.03;60.88;100747.03;5086572;28;20431;-50
2022/05/28 04:17:41;;;;;;;5.63;1.00;;;;;;;11.06;60.85;100731.06;5095628;28;20024;-49
2022/05/28 04:20:09;;;;;;;2.40;0.93;;;;;;;11.11;60.70;100734.28;5086257;28;20032;-49
2022/05/28 04:22:35;;;;;;;7.35;1.83;;;;;;;11.12;60.57;100733.31;5083605;28;20035;-53
2022/05/28 04:25:00;;;;;;;5.07;1.38;;;;;;;11.12;60.60;100733.31;5081279;28;20032;-50
2022/05/28 04:27:26;;;;;;;8.80;1.70;;;;;;;11.05;60.45;100729.38;5081137;28;20043;-49
2022/05/28 04:29:51;;;;;;;5.72;1.30;;;;;;;11.03;60.56;100736.53;5088121;28;20150;-53
2022/05/28 04:32:17;;;;;;;11.40;3.05;;;;;;;11.01;60.68;100755.06;5090603;28;20043;-52
2022/05/28 04:34:42;;;;;;;4.00;1.00;;;;;;;10.95;60.75;100731.72;5090874;28;20027;-53
2022/05/28 04:37:08;;;;;;;5.30;0.98;;;;;;;10.86;60.96;100756.78;5089201;28;20036;-51
2022/05/28 04:39:33;;;;;;;4.50;0.85;;;;;;;10.82;60.97;100750.00;5090545;28;20444;-47
2022/05/28 04:41:59;;;;;;;3.95;0.82;;;;;;;10.84;60.60;100753.41;5090147;28;20034;-47
2022/05/28 04:44:25;;;;;;;5.15;1.55;;;;;;;10.86;60.53;100742.78;5086566;28;20046;-48
2022/05/28 04:46:50;;;;;;;3.05;0.70;;;;;;;10.86;60.61;100740.16;5087685;28;20507;-48
2022/05/28 04:49:16;;;;;;;4.00;0.90;;;;;;;10.92;60.66;100751.19;5080682;28;20024;-47
2022/05/28 04:51:42;;;;;;;3.08;0.80;;;;;;;10.95;60.85;100740.47;5081270;28;20020;-48
2022/05/28 04:54:08;;;;;;;3.55;1.10;;;;;;;10.98;60.73;100756.06;5083781;28;20063;-49
2022/05/28 04:56:33;;;;;;;3.28;0.90;;;;;;;11.01;60.49;100755.06;5086256;28;20097;-47
2022/05/28 04:58:59;;;;;;;6.15;1.00;;;;;;;11.03;60.24;100760.22;5075874;28;20024;-55
2022/05/28 05:01:25;;;;;;;5.70;0.93;;;;;;;11.02;60.15;100746.22;5080042;28;20392;-51
2022/05/28 05:03:50;;;;;;;3.53;0.90;;;;;;;10.99;60.17;100746.38;5080501;28;20039;-47
2022/05/28 05:06:16;;;;;;;3.75;0.90;;;;;;;10.98;60.17;100735.00;5078341;28;20066;-47
2022/05/28 05:08:41;;;;;;;3.97;0.95;;;;;;;10.97;60.27;100738.56;5083788;28;20404;-49
2022/05/28 05:11:07;;;;;;;2.45;0.65;;;;;;;10.98;60.19;100748.16;5085456;28;20177;-53
2022/05/28 05:13:32;;;;;;;4.50;1.15;;;;;;;11.03;59.95;100742.66;5082031;28;20027;-47
2022/05/28 05:15:58;;;;;;;3.88;0.95;;;;;;;11.06;59.91;100767.94;5087259;28;20134;-49
2022/05/28 05:18:24;;;;;;;4.22;1.15;;;;;;;11.05;59.57;100753.06;5085378;28;20492;-50
2022/05/28 05:20:49;;;;;;;4.97;1.00;;;;;;;11.04;59.60;100751.38;5079725;28;20087;-47
2022/05/28 05:23:17;;;;;;;3.38;0.98;;;;;;;11.03;59.69;100741.78;5077937;28;20445;-47
2022/05/28 05:25:42;;;;;;;4.60;1.00;;;;;;;11.05;59.67;100729.38;5081319;28;20028;-49
2022/05/28 05:28:07;;;;;;;5.47;0.90;;;;;;;11.04;59.69;100748.75;5079957;28;20506;-48
2022/05/28 05:30:33;;;;;;;6.53;1.02;;;;;;;11.07;59.50;100759.09;5085254;28;20035;-52
2022/05/28 05:32:58;;;;;;;4.70;1.13;;;;;;;11.08;59.22;100735.31;5079098;28;20058;-50
2022/05/28 05:35:24;;;;;;;7.38;1.10;;;;;;;11.12;59.27;100749.97;5078196;28;20161;-50
2022/05/28 05:37:49;;;;;;;4.60;0.90;;;;;;;11.18;58.99;100756.66;5084943;28;20051;-45
2022/05/28 05:40:15;;;;;;;4.97;1.38;;;;;;;11.19;58.85;100750.47;5093942;28;20032;-51
2022/05/28 05:42:41;;;;;;;6.50;1.00;;;;;;;11.23;59.00;100764.28;5078365;28;20115;-48
2022/05/28 05:45:07;;;;;;;3.67;1.20;;;;;;;11.33;58.75;100748.78;5083777;28;20024;-48
2022/05/28 05:47:33;;;;;;;4.03;0.98;;;;;;;11.34;58.49;100751.34;5079165;28;20078;-48
2022/05/28 05:49:59;;;;;;;5.53;1.50;;;;;;;11.40;58.34;100744.84;5077872;28;20032;-48
2022/05/28 05:52:25;;;;;;;5.88;1.02;;;;;;;11.49;58.16;100767.16;5077404;28;20044;-53
2022/05/28 05:54:51;;;;;;;3.35;0.93;;;;;;;11.55;57.95;100751.81;5079229;28;20060;-55
2022/05/28 05:57:17;;;;;;;4.22;1.10;;;;;;;11.54;57.87;100759.78;5084614;28;20032;-45
2022/05/28 05:59:43;;;;;;;2.67;0.93;;;;;;;11.59;57.88;100791.97;5086813;28;20357;-45
2022/05/28 06:02:09;;;;;;;4.65;1.10;;;;;;;11.61;57.61;100757.63;5081390;28;20035;-46
2022/05/28 06:04:34;;;;;;;4.32;1.20;;;;;;;11.63;57.13;100771.56;5084435;28;20058;-54
2022/05/28 06:07:00;;;;;;;6.38;1.02;;;;;;;11.65;57.01;100751.22;5077595;28;20070;-48
2022/05/28 06:09:25;;;;;;;5.00;1.13;;;;;;;11.69;57.09;100771.19;5076277;28;20052;-51
2022/05/28 06:11:52;;;;;;;6.28;1.15;;;;;;;11.73;57.15;100762.13;5079613;28;20062;-50
2022/05/28 06:14:17;;;;;;;4.53;1.10;;;;;;;11.78;57.05;100764.50;5087910;28;20488;-52
2022/05/28 06:16:43;;;;;;;7.88;1.08;;;;;;;11.80;57.27;100752.91;5085397;28;20051;-51
2022/05/28 06:19:09;;;;;;;7.18;1.98;;;;;;;11.86;57.16;100762.22;5089198;28;20031;-48
2022/05/28 06:21:35;;;;;;;8.98;1.55;;;;;;;11.84;56.97;100759.69;5080016;28;20032;-47
2022/05/28 06:24:01;;;;;;;4.88;1.20;;;;;;;11.86;56.81;100756.94;5071377;28;20054;-49
2022/05/28 06:26:27;;;;;;;2.72;1.17;;;;;;;11.88;56.71;100749.78;5084171;28;20060;-51
2022/05/28 06:28:53;;;;;;;4.38;1.05;;;;;;;11.93;56.86;100754.75;5078177;28;20043;-51
2022/05/28 06:31:19;;;;;;;2.88;1.25;;;;;;;11.96;56.58;100742.22;5084132;28;20096;-48
2022/05/28 06:33:44;;;;;;;4.43;0.93;;;;;;;11.95;56.40;100750.25;5081927;28;20118;-49
2022/05/28 06:36:11;;;;;;;3.92;0.93;;;;;;;11.90;56.20;100753.16;5086714;28;20059;-51
2022/05/28 06:38:37;;;;;;;4.78;1.00;;;;;;;11.90;56.52;100742.63;5086490;28;20415;-50
2022/05/28 06:41:03;;;;;;;2.83;0.93;;;;;;;11.94;56.43;100740.63;5088190;28;20039;-55
2022/05/28 06:43:32;;;;;;;4.78;1.17;;;;;;;11.95;56.29;100750.25;5080904;28;20030;-47
2022/05/28 06:46:03;;;;;;;2.53;0.98;;;;;;;11.93;55.90;100742.44;5081898;28;20044;-51
2022/05/28 06:48:28;;;;;;;3.45;1.00;;;;;;;11.94;55.95;100756.44;5083278;28;20095;-48
2022/05/28 06:51:03;;;;;;;6.63;1.10;;;;;;;11.95;55.93;100744.97;5086392;28;20088;-49
2022/05/28 06:53:42;;;;;;;3.92;1.10;;;;;;;11.96;55.96;100767.75;5084960;28;20036;-52
2022/05/28 06:56:09;;;;;;;2.47;1.05;;;;;;;11.99;55.96;100755.25;5089837;28;20081;-49
2022/05/28 06:58:35;;;;;;;3.13;0.85;;;;;;;12.04;55.92;100753.16;5078725;28;20052;-51
2022/05/28 07:01:03;;;;;;;4.45;0.80;;;;;;;12.08;55.67;100740.63;5087792;28;20143;-52
2022/05/28 07:03:30;;;;;;;11.38;1.02;;;;;;;12.14;55.66;100744.66;5081960;28;20064;-49
2022/05/28 07:05:57;;;;;;;5.63;1.10;;;;;;;12.17;55.61;100733.91;5079375;28;20443;-48
2022/05/28 07:08:23;;;;;;;9.35;1.20;;;;;;;12.25;55.45;100755.34;5086247;28;20545;-52
2022/05/28 07:10:51;;;;;;;4.28;1.17;;;;;;;12.29;55.10;100761.31;5086176;28;20031;-49
2022/05/28 07:13:19;;;;;;;4.13;1.17;;;;;;;12.26;54.82;100748.31;5086996;28;20624;-52
2022/05/28 07:15:45;;;;;;;5.72;1.10;;;;;;;12.21;54.67;100761.81;5079826;28;20032;-49
2022/05/28 07:18:11;;;;;;;3.65;1.08;;;;;;;12.15;54.58;100752.50;5088052;28;20036;-54
2022/05/28 07:20:37;;;;;;;7.70;0.90;;;;;;;12.17;54.72;100750.59;5081714;28;20038;-46
2022/05/28 07:23:16;;;;;;;2.65;1.00;;;;;;;12.23;54.78;100762.56;5077114;28;20032;-51
2022/05/28 07:25:43;;;;;;;1.60;1.00;;;;;;;12.27;54.86;100752.63;5081430;28;20024;-55
2022/05/28 07:28:24;;;;;;;5.43;1.10;;;;;;;12.34;54.80;100756.56;5077217;28;20559;-45
2022/05/28 07:30:51;;;;;;;3.42;1.08;;;;;;;12.41;54.58;100760.50;5080407;28;20407;-54
2022/05/28 07:33:17;;;;;;;6.38;1.10;;;;;;;12.48;54.83;100760.94;5079257;28;20487;-45
2022/05/28 07:35:43;;;;;;;5.82;1.00;;;;;;;12.52;54.54;100761.59;5064248;28;20040;-52
2022/05/28 07:38:08;;;;;;;4.47;1.10;;;;;;;12.47;54.48;100757.47;5080978;28;20032;-51
2022/05/28 07:40:34;;;;;;;4.72;1.15;;;;;;;12.48;54.28;100764.41;5097658;28;20043;-52
2022/05/28 07:43:00;;;;;;;4.22;1.50;;;;;;;12.51;54.33;100768.66;5075132;28;20028;-48
2022/05/28 07:45:25;;;;;;;4.10;1.15;;;;;;;12.54;54.06;100767.59;5080556;28;20383;-55
2022/05/28 07:47:51;;;;;;;5.93;0.88;;;;;;;12.53;54.03;100777.34;5085451;28;20024;-50
2022/05/28 07:50:16;;;;;;;7.03;1.08;;;;;;;12.50;53.94;100778.34;5095608;28;20035;-55
2022/05/28 07:52:42;;;;;;;5.13;1.00;;;;;;;12.53;54.19;100760.63;5081286;28;20120;-51
2022/05/28 07:55:10;;;;;;;8.45;1.25;;;;;;;12.56;54.10;100763.09;5083225;28;20039;-52
2022/05/28 07:57:35;;;;;;;2.75;1.00;;;;;;;12.56;53.93;100771.00;5069440;28;20516;-53
2022/05/28 08:00:03;;;;;;;5.32;1.02;;;;;;;12.55;53.82;100785.13;5084536;28;20033;-51
2022/05/28 08:02:28;;;;;;;3.90;1.00;;;;;;;12.52;53.94;100764.22;5087009;28;20040;-50
2022/05/28 08:04:53;;;;;;;4.53;1.00;;;;;;;12.56;54.28;100763.91;5076974;28;20055;-52
2022/05/28 08:07:19;;;;;;;6.28;1.17;;;;;;;12.64;54.02;100758.13;5081437;28;20484;-51
2022/05/28 08:09:44;;;;;;;4.30;1.17;;;;;;;12.66;54.06;100761.50;5082653;28;20648;-49
2022/05/28 08:12:11;;;;;;;5.13;0.90;;;;;;;12.67;54.25;100757.09;5077497;28;20059;-51
2022/05/28 08:14:36;;;;;;;3.45;1.08;;;;;;;12.66;53.95;100774.72;5070378;28;20151;-52
2022/05/28 08:17:01;;;;;;;5.28;1.23;;;;;;;12.60;53.85;100772.50;5080426;28;20028;-48
2022/05/28 08:19:27;;;;;;;6.78;1.50;;;;;;;12.59;54.02;100766.34;5082247;28;20078;-50
2022/05/28 08:24:37;;;;;;;2.92;1.50;;;;;;;12.65;54.03;100754.53;5083862;28;20062;-50
2022/05/28 08:27:02;;;;;;;5.30;1.13;;;;;;;12.66;54.17;100774.72;5077090;28;20027;-51
2022/05/28 08:29:28;;;;;;;3.30;1.00;;;;;;;12.73;54.24;100783.94;5077580;28;20028;-52
2022/05/28 08:31:53;;;;;;;5.88;1.10;;;;;;;12.80;54.04;100764.09;5078261;28;20061;-50
2022/05/28 08:34:19;;;;;;;6.85;1.30;;;;;;;12.93;54.17;100758.00;5078200;28;20023;-51
2022/05/28 08:36:44;;;;;;;6.00;1.38;;;;;;;13.05;53.83;100773.00;5076035;28;20036;-53
2022/05/28 08:39:10;;;;;;;3.33;0.98;;;;;;;13.10;53.66;100781.44;5075326;28;20043;-50
2022/05/28 08:41:52;;;;;;;9.88;1.30;;;;;;;13.15;53.40;100759.16;5080163;28;20023;-52
2022/05/28 08:44:21;;;;;;;6.75;1.75;;;;;;;13.14;53.14;100791.81;5084124;28;20043;-48
2022/05/28 08:46:54;;;;;;;5.30;1.15;;;;;;;13.17;53.15;100781.03;5075817;28;20027;-52
2022/05/28 08:49:23;;;;;;;8.68;1.13;;;;;;;13.18;52.87;100770.38;5080200;28;20677;-49
2022/05/28 08:52:03;;;;;;;6.70;1.45;;;;;;;13.20;53.29;100765.81;5076594;28;20083;-53
2022/05/28 08:54:40;;;;;;;6.97;1.10;;;;;;;13.19;53.13;100776.50;5074928;28;20024;-52
2022/05/28 08:57:13;;;;;;;7.25;1.02;;;;;;;13.19;53.45;100776.50;5080988;28;20031;-49
2022/05/28 08:59:46;;;;;;;5.22;1.15;;;;;;;13.21;53.84;100774.63;5083449;28;20024;-51
2022/05/28 09:02:20;;;;;;;7.70;1.30;;;;;;;13.21;54.25;100782.53;5080949;28;20042;-50
2022/05/28 09:04:47;;;;;;;6.75;1.45;;;;;;;13.28;54.89;100783.78;5074603;28;20398;-49
2022/05/28 09:07:14;;;;;;;40.97;5.65;;;;;;;13.30;55.31;100792.47;5074146;28;20127;-46
2022/05/28 09:09:49;;;;;;;3.20;0.90;;;;;;;13.25;55.94;100784.84;5074854;28;20028;-52
2022/05/28 09:12:23;;;;;;;6.57;1.73;;;;;;;13.19;56.18;100792.38;5081390;28;20106;-50
2022/05/28 09:14:49;;;;;;;7.30;1.38;;;;;;;13.14;56.47;100802.38;5076938;28;20039;-53
2022/05/28 09:17:34;;;;;;;6.63;1.85;;;;;;;13.09;56.66;100806.19;5070462;28;20032;-53
2022/05/28 09:20:23;;;;;;;8.20;1.48;;;;;;;13.02;57.35;100810.19;5083756;28;20493;-52
2022/05/28 09:22:49;;;;;;;6.95;1.30;;;;;;;13.00;57.62;100811.25;5076615;28;20077;-48
2022/05/28 09:25:22;;;;;;;4.78;1.20;;;;;;;12.95;58.13;100815.03;5078028;28;21139;-51
2022/05/28 09:27:53;;;;;;;5.25;1.23;;;;;;;12.92;58.26;100828.44;5082091;28;20032;-53
2022/05/28 09:30:24;;;;;;;3.95;1.20;;;;;;;12.87;58.82;100845.53;5085572;28;20041;-52
2022/05/28 09:33:28;;;;;;;3.38;1.30;;;;;;;12.83;58.83;100836.13;5080380;28;20031;-49
2022/05/28 09:36:15;;;;;;;9.63;1.55;;;;;;;12.78;59.36;100820.59;5086089;28;20016;-55
2022/05/28 09:39:03;;;;;;;5.43;1.67;;;;;;;12.77;59.65;100822.41;5087331;28;20024;-51
2022/05/28 09:42:00;;;;;;;6.60;1.95;;;;;;;12.73;59.65;100852.59;5087496;28;20028;-52
2022/05/28 09:44:36;;;;;;;4.30;1.30;;;;;;;12.64;60.01;100832.03;5088364;28;20059;-50
2022/05/28 09:47:14;;;;;;;5.80;1.23;;;;;;;12.55;60.80;100822.09;5087520;28;20036;-50
2022/05/28 09:50:15;;;;;;;5.82;1.50;;;;;;;12.53;61.20;100824.84;5086945;28;20051;-49
2022/05/28 09:54:16;;;;;;;4.00;1.40;;;;;;;12.55;61.35;100840.56;5081455;28;20049;-50
2022/05/28 09:55:26;;;;;;;6.38;1.50;;;;;;;12.50;61.48;100831.16;5081764;28;20542;-52
2022/05/28 09:57:56;;;;;;;6.90;1.92;;;;;;;12.52;61.86;100838.13;5079036;28;20118;-48
2022/05/28 10:00:22;;;;;;;9.27;2.03;;;;;;;12.43;62.17;100827.22;5083998;28;20032;-52
2022/05/28 10:05:53;;;;;;;6.18;1.40;;;;;;;12.24;62.87;100839.88;5082755;28;20447;-48
2022/05/28 10:08:19;;;;;;;2.88;1.38;;;;;;;12.20;62.84;100850.63;5080106;28;20530;-46
2022/05/28 10:10:56;;;;;;;8.50;1.70;;;;;;;12.19;62.99;100842.81;5079622;28;20056;-49
2022/05/28 10:13:24;;;;;;;6.65;1.52;;;;;;;12.19;62.78;100845.47;5085818;28;20062;-48
2022/05/28 10:15:53;;;;;;;6.55;1.65;;;;;;;12.18;63.02;100856.94;5084508;28;20098;-48
2022/05/28 10:18:40;;;;;;;9.95;1.63;;;;;;;12.17;63.19;100855.25;5077103;28;20521;-48
2022/05/28 10:21:12;;;;;;;10.10;1.70;;;;;;;12.15;63.04;100843.94;5081491;28;20039;-52
2022/05/28 10:23:44;;;;;;;7.35;1.90;;;;;;;12.13;63.30;100846.69;5084161;28;20111;-50
2022/05/28 10:26:20;;;;;;;5.88;1.50;;;;;;;12.16;63.42;100843.88;5091210;28;20024;-49
2022/05/28 10:28:51;;;;;;;10.93;1.40;;;;;;;12.18;63.43;100849.03;5079971;28;20151;-51
2022/05/28 10:31:38;;;;;;;5.80;1.42;;;;;;;12.19;63.51;100848.94;5083438;28;20032;-51
2022/05/28 10:34:05;;;;;;;5.93;1.80;;;;;;;12.26;63.21;100859.09;5077573;28;20028;-47
2022/05/28 10:36:33;;;;;;;7.13;1.30;;;;;;;12.29;63.19;100854.47;5081228;28;20035;-50
2022/05/28 10:39:05;;;;;;;17.27;3.45;;;;;;;12.34;63.15;100851.53;5081168;28;20420;-49
2022/05/28 10:41:31;;;;;;;6.68;1.60;;;;;;;12.41;62.94;100847.59;5079776;28;20526;-47
2022/05/28 10:43:57;;;;;;;5.50;1.60;;;;;;;12.54;62.88;100844.16;5078381;28;20043;-51
2022/05/28 10:46:43;;;;;;;6.03;1.70;;;;;;;12.67;61.99;100847.69;5082481;28;20032;-47
2022/05/28 10:49:36;;;;;;;6.45;1.52;;;;;;;12.80;62.03;100850.38;5057372;28;20066;-50
2022/05/28 10:52:16;;;;;;;7.57;1.83;;;;;;;12.96;61.86;100847.56;5087765;28;20024;-48
2022/05/28 10:55:05;;;;;;;7.70;1.60;;;;;;;13.14;61.40;100844.66;5077205;28;20096;-46
2022/05/28 10:57:49;;;;;;;11.48;1.85;;;;;;;13.30;61.17;100842.69;5073658;28;20061;-50
2022/05/28 11:00:19;;;;;;;7.35;1.67;;;;;;;13.40;60.76;100840.28;5078413;28;20028;-49
2022/05/28 11:03:24;;;;;;;9.32;2.17;;;;;;;13.57;59.88;100847.91;5085101;28;20038;-49
2022/05/28 11:06:05;;;;;;;6.13;1.15;;;;;;;13.72;58.91;100840.69;5093057;28;20023;-49
2022/05/28 11:09:01;;;;;;;9.25;1.60;;;;;;;13.85;58.00;100845.13;5087060;28;20165;-50
2022/05/28 11:11:44;;;;;;;6.10;1.50;;;;;;;13.92;57.09;100856.13;5085264;28;20399;-47
2022/05/28 11:14:20;;;;;;;8.80;1.95;;;;;;;13.93;56.51;100850.75;5089859;28;20020;-47
2022/05/28 11:17:06;;;;;;;6.72;1.48;;;;;;;13.96;56.37;100841.75;5091377;28;20088;-47
2022/05/28 11:20:11;;;;;;;4.85;1.27;;;;;;;14.05;56.18;100840.25;5091877;28;20016;-47
2022/05/28 11:22:52;;;;;;;7.35;1.48;;;;;;;14.18;55.84;100849.00;5092434;28;20028;-48
2022/05/28 11:25:29;;;;;;;6.63;1.67;;;;;;;14.26;55.46;100838.72;5102200;28;20020;-47
2022/05/28 11:28:07;;;;;;;6.00;1.05;;;;;;;14.28;54.65;100846.53;5088967;28;20519;-48
2022/05/28 11:30:42;;;;;;;8.38;1.55;;;;;;;14.35;54.48;100858.41;5092304;28;20124;-46
2022/05/28 11:33:15;;;;;;;4.72;1.40;;;;;;;14.41;53.80;100867.69;5089869;28;20031;-47
2022/05/28 11:35:51;;;;;;;4.55;1.58;;;;;;;14.50;53.19;100893.50;5091175;28;20121;-47
2022/05/28 11:38:40;;;;;;;6.03;1.33;;;;;;;14.54;52.85;100863.19;5085581;28;20031;-48
2022/05/28 11:41:29;;;;;;;7.53;1.48;;;;;;;14.62;53.08;100850.22;5092017;28;20081;-48
2022/05/28 11:44:07;;;;;;;5.78;1.50;;;;;;;14.72;52.68;100906.06;5092803;28;20110;-47